sensor_id;sensor_type;location;lat;lon;timestamp;temperature;humidity
16955;DHT22;8594;52.052;8.354;2022-12-16T00:01:07;-1.90;99.90
16955;DHT22;8594;52.052;8.354;2022-12-16T00:03:37;-1.90;99.90
16955;DHT22;8594;52.052;8.354;2022-12-16T00:06:06;-2.10;99.90
16955;DHT22;8594;52.052;8.354;2022-12-16T00:08:37;-2.30;99.90
16955;DHT22;8594;52.052;8.354;2022-12-16T00:11:06;-2.50;99.90
16955;DHT22;8594;52.052;8.354;2022-12-16T00:13:35;-2.50;99.90
16955;DHT22;8594;52.052;8.354;2022-12-16T00:16:04;-2.00;99.90
16955;DHT22;8594;52.052;8.354;2022-12-16T00:18:32;-1.70;99.90
16955;DHT22;8594;52.052;8.354;2022-12-16T00:21:00;-1.60;99.90
16955;DHT22;8594;52.052;8.354;2022-12-16T00:23:27;-1.60;99.90
16955;DHT22;8594;52.052;8.354;2022-12-16T00:25:55;-1.80;99.90
16955;DHT22;8594;52.052;8.354;2022-12-16T00:28:22;-2.20;99.90
16955;DHT22;8594;52.052;8.354;2022-12-16T00:30:50;-2.50;99.90
16955;DHT22;8594;52.052;8.354;2022-12-16T00:33:19;-2.50;99.90
16955;DHT22;8594;52.052;8.354;2022-12-16T00:35:48;-2.50;99.90
16955;DHT22;8594;52.052;8.354;2022-12-16T00:38:17;-2.60;99.90
16955;DHT22;8594;52.052;8.354;2022-12-16T00:40:44;-2.70;99.90
16955;DHT22;8594;52.052;8.354;2022-12-16T00:43:11;-2.60;99.90
16955;DHT22;8594;52.052;8.354;2022-12-16T00:45:38;-2.50;99.90
16955;DHT22;8594;52.052;8.354;2022-12-16T00:48:06;-2.40;99.90
16955;DHT22;8594;52.052;8.354;2022-12-16T00:50:33;-2.40;99.90
16955;DHT22;8594;52.052;8.354;2022-12-16T00:53:00;-2.40;99.90
16955;DHT22;8594;52.052;8.354;2022-12-16T00:55:29;-2.40;99.90
16955;DHT22;8594;52.052;8.354;2022-12-16T00:57:57;-2.40;99.90
16955;DHT22;8594;52.052;8.354;2022-12-16T01:00:24;-2.40;99.90
16955;DHT22;8594;52.052;8.354;2022-12-16T01:02:51;-2.30;99.90
16955;DHT22;8594;52.052;8.354;2022-12-16T01:05:20;-2.30;99.90
16955;DHT22;8594;52.052;8.354;2022-12-16T01:07:51;-2.40;99.90
16955;DHT22;8594;52.052;8.354;2022-12-16T01:10:18;-2.40;99.90
16955;DHT22;8594;52.052;8.354;2022-12-16T01:12:47;-2.40;99.90
16955;DHT22;8594;52.052;8.354;2022-12-16T01:15:14;-2.30;99.90
16955;DHT22;8594;52.052;8.354;2022-12-16T01:17:41;-2.50;99.90
16955;DHT22;8594;52.052;8.354;2022-12-16T01:20:09;-2.70;99.90
16955;DHT22;8594;52.052;8.354;2022-12-16T01:22:37;-3.00;99.90
16955;DHT22;8594;52.052;8.354;2022-12-16T01:25:05;-3.20;99.90
16955;DHT22;8594;52.052;8.354;2022-12-16T01:27:32;-3.00;99.90
16955;DHT22;8594;52.052;8.354;2022-12-16T01:30:00;-2.90;99.90
16955;DHT22;8594;52.052;8.354;2022-12-16T01:32:27;-2.80;99.90
16955;DHT22;8594;52.052;8.354;2022-12-16T01:34:54;-2.40;99.90
16955;DHT22;8594;52.052;8.354;2022-12-16T01:37:22;-2.70;99.90
16955;DHT22;8594;52.052;8.354;2022-12-16T01:39:49;-2.80;99.90
16955;DHT22;8594;52.052;8.354;2022-12-16T01:42:18;-2.80;99.90
16955;DHT22;8594;52.052;8.354;2022-12-16T01:44:49;-2.80;99.90
16955;DHT22;8594;52.052;8.354;2022-12-16T01:47:23;-2.80;99.90
16955;DHT22;8594;52.052;8.354;2022-12-16T01:49:55;-3.10;99.90
16955;DHT22;8594;52.052;8.354;2022-12-16T01:52:30;-3.50;99.90
16955;DHT22;8594;52.052;8.354;2022-12-16T01:55:01;-3.40;99.90
16955;DHT22;8594;52.052;8.354;2022-12-16T01:57:36;-3.40;99.90
16955;DHT22;8594;52.052;8.354;2022-12-16T02:00:09;-3.30;99.90
16955;DHT22;8594;52.052;8.354;2022-12-16T02:02:39;-3.20;99.90
16955;DHT22;8594;52.052;8.354;2022-12-16T02:05:08;-3.20;99.90
16955;DHT22;8594;52.052;8.354;2022-12-16T02:07:54;-3.10;99.90
16955;DHT22;8594;52.052;8.354;2022-12-16T02:10:32;-3.10;99.90
16955;DHT22;8594;52.052;8.354;2022-12-16T02:13:17;-3.00;99.90
16955;DHT22;8594;52.052;8.354;2022-12-16T02:15:55;-2.90;99.90
16955;DHT22;8594;52.052;8.354;2022-12-16T02:18:37;-2.90;99.90
16955;DHT22;8594;52.052;8.354;2022-12-16T02:21:19;-2.90;99.90
16955;DHT22;8594;52.052;8.354;2022-12-16T02:24:24;-2.70;99.90
16955;DHT22;8594;52.052;8.354;2022-12-16T02:27:30;-2.90;99.90
16955;DHT22;8594;52.052;8.354;2022-12-16T02:30:33;-2.90;99.90
16955;DHT22;8594;52.052;8.354;2022-12-16T02:36:11;-2.90;99.90
16955;DHT22;8594;52.052;8.354;2022-12-16T02:38:53;-2.80;99.90
16955;DHT22;8594;52.052;8.354;2022-12-16T02:41:29;-2.90;99.90
16955;DHT22;8594;52.052;8.354;2022-12-16T02:44:03;-2.50;99.90
16955;DHT22;8594;52.052;8.354;2022-12-16T02:46:38;-2.80;99.90
16955;DHT22;8594;52.052;8.354;2022-12-16T02:49:07;-3.00;99.90
16955;DHT22;8594;52.052;8.354;2022-12-16T02:51:36;-3.10;99.90
16955;DHT22;8594;52.052;8.354;2022-12-16T02:54:06;-3.00;99.90
16955;DHT22;8594;52.052;8.354;2022-12-16T02:56:45;-2.90;99.90
16955;DHT22;8594;52.052;8.354;2022-12-16T02:59:25;-3.20;99.90
16955;DHT22;8594;52.052;8.354;2022-12-16T03:02:06;-3.30;99.90
16955;DHT22;8594;52.052;8.354;2022-12-16T03:04:41;-3.20;99.90
16955;DHT22;8594;52.052;8.354;2022-12-16T03:07:14;-3.30;99.90
16955;DHT22;8594;52.052;8.354;2022-12-16T03:09:44;-3.30;99.90
16955;DHT22;8594;52.052;8.354;2022-12-16T03:12:16;-3.20;99.90
16955;DHT22;8594;52.052;8.354;2022-12-16T03:14:49;-3.30;99.90
16955;DHT22;8594;52.052;8.354;2022-12-16T03:17:21;-3.00;99.90
16955;DHT22;8594;52.052;8.354;2022-12-16T03:19:55;-2.50;99.90
16955;DHT22;8594;52.052;8.354;2022-12-16T03:22:28;-2.60;99.90
16955;DHT22;8594;52.052;8.354;2022-12-16T03:24:58;-2.90;99.90
16955;DHT22;8594;52.052;8.354;2022-12-16T03:27:33;-3.00;99.90
16955;DHT22;8594;52.052;8.354;2022-12-16T03:30:08;-3.10;99.90
16955;DHT22;8594;52.052;8.354;2022-12-16T03:32:42;-3.30;99.90
16955;DHT22;8594;52.052;8.354;2022-12-16T03:35:17;-3.30;99.90
16955;DHT22;8594;52.052;8.354;2022-12-16T03:37:50;-3.10;99.90
16955;DHT22;8594;52.052;8.354;2022-12-16T03:40:21;-3.10;99.90
16955;DHT22;8594;52.052;8.354;2022-12-16T03:42:51;-3.10;99.90
16955;DHT22;8594;52.052;8.354;2022-12-16T03:45:27;-3.10;99.90
16955;DHT22;8594;52.052;8.354;2022-12-16T03:47:59;-3.20;99.90
16955;DHT22;8594;52.052;8.354;2022-12-16T03:50:30;-3.20;99.90
16955;DHT22;8594;52.052;8.354;2022-12-16T03:52:58;-3.10;99.90
16955;DHT22;8594;52.052;8.354;2022-12-16T03:55:26;-3.10;99.90
16955;DHT22;8594;52.052;8.354;2022-12-16T03:57:53;-3.10;99.90
16955;DHT22;8594;52.052;8.354;2022-12-16T04:00:22;-3.10;99.90
16955;DHT22;8594;52.052;8.354;2022-12-16T04:02:50;-3.20;99.90
16955;DHT22;8594;52.052;8.354;2022-12-16T04:05:18;-3.20;99.90
16955;DHT22;8594;52.052;8.354;2022-12-16T04:07:45;-3.30;99.90
16955;DHT22;8594;52.052;8.354;2022-12-16T04:10:12;-3.20;99.90
16955;DHT22;8594;52.052;8.354;2022-12-16T04:12:39;-3.20;99.90
16955;DHT22;8594;52.052;8.354;2022-12-16T04:15:23;-3.20;99.90
16955;DHT22;8594;52.052;8.354;2022-12-16T04:18:13;-3.10;99.90
16955;DHT22;8594;52.052;8.354;2022-12-16T04:21:01;-3.20;99.90
16955;DHT22;8594;52.052;8.354;2022-12-16T04:23:49;-3.00;99.90
16955;DHT22;8594;52.052;8.354;2022-12-16T04:26:37;-3.00;99.90
16955;DHT22;8594;52.052;8.354;2022-12-16T04:29:19;-3.00;99.90
16955;DHT22;8594;52.052;8.354;2022-12-16T04:31:45;-3.00;99.90
16955;DHT22;8594;52.052;8.354;2022-12-16T04:34:12;-3.10;99.90
16955;DHT22;8594;52.052;8.354;2022-12-16T04:36:52;-3.20;99.90
16955;DHT22;8594;52.052;8.354;2022-12-16T04:39:36;-3.40;99.90
16955;DHT22;8594;52.052;8.354;2022-12-16T04:42:21;-3.50;99.90
16955;DHT22;8594;52.052;8.354;2022-12-16T04:45:06;-3.50;99.90
16955;DHT22;8594;52.052;8.354;2022-12-16T04:47:52;-3.70;99.90
16955;DHT22;8594;52.052;8.354;2022-12-16T04:50:37;-3.80;99.90
16955;DHT22;8594;52.052;8.354;2022-12-16T04:53:23;-4.10;99.90
16955;DHT22;8594;52.052;8.354;2022-12-16T04:56:07;-4.30;99.90
16955;DHT22;8594;52.052;8.354;2022-12-16T04:58:52;-4.40;99.90
16955;DHT22;8594;52.052;8.354;2022-12-16T05:01:37;-4.20;99.90
16955;DHT22;8594;52.052;8.354;2022-12-16T05:04:21;-4.00;99.90
16955;DHT22;8594;52.052;8.354;2022-12-16T05:07:06;-3.70;99.90
16955;DHT22;8594;52.052;8.354;2022-12-16T05:09:48;-3.70;99.90
16955;DHT22;8594;52.052;8.354;2022-12-16T05:12:33;-3.40;99.90
16955;DHT22;8594;52.052;8.354;2022-12-16T05:15:17;-3.30;99.90
16955;DHT22;8594;52.052;8.354;2022-12-16T05:18:07;-3.40;99.90
16955;DHT22;8594;52.052;8.354;2022-12-16T05:20:52;-3.30;99.90
16955;DHT22;8594;52.052;8.354;2022-12-16T05:23:37;-3.60;99.90
16955;DHT22;8594;52.052;8.354;2022-12-16T05:26:23;-3.70;99.90
16955;DHT22;8594;52.052;8.354;2022-12-16T05:29:07;-3.60;99.90
16955;DHT22;8594;52.052;8.354;2022-12-16T05:31:52;-3.60;99.90
16955;DHT22;8594;52.052;8.354;2022-12-16T05:34:37;-3.60;99.90
16955;DHT22;8594;52.052;8.354;2022-12-16T05:37:22;-3.60;99.90
16955;DHT22;8594;52.052;8.354;2022-12-16T05:40:08;-3.60;99.90
16955;DHT22;8594;52.052;8.354;2022-12-16T05:42:51;-3.50;99.90
16955;DHT22;8594;52.052;8.354;2022-12-16T05:45:36;-3.50;99.90
16955;DHT22;8594;52.052;8.354;2022-12-16T05:48:20;-3.50;99.90
16955;DHT22;8594;52.052;8.354;2022-12-16T05:51:05;-3.50;99.90
16955;DHT22;8594;52.052;8.354;2022-12-16T05:53:49;-3.50;99.90
16955;DHT22;8594;52.052;8.354;2022-12-16T05:56:34;-3.50;99.90
16955;DHT22;8594;52.052;8.354;2022-12-16T05:59:20;-3.50;99.90
16955;DHT22;8594;52.052;8.354;2022-12-16T06:02:04;-3.80;99.90
16955;DHT22;8594;52.052;8.354;2022-12-16T06:04:49;-3.90;99.90
16955;DHT22;8594;52.052;8.354;2022-12-16T06:07:34;-3.90;99.90
16955;DHT22;8594;52.052;8.354;2022-12-16T06:10:18;-3.60;99.90
16955;DHT22;8594;52.052;8.354;2022-12-16T06:13:03;-3.70;99.90
16955;DHT22;8594;52.052;8.354;2022-12-16T06:15:49;-3.90;99.90
16955;DHT22;8594;52.052;8.354;2022-12-16T06:18:34;-4.00;99.90
16955;DHT22;8594;52.052;8.354;2022-12-16T06:21:18;-4.10;99.90
16955;DHT22;8594;52.052;8.354;2022-12-16T06:24:11;-4.10;99.90
16955;DHT22;8594;52.052;8.354;2022-12-16T06:26:56;-4.20;99.90
16955;DHT22;8594;52.052;8.354;2022-12-16T06:29:40;-4.00;99.90
16955;DHT22;8594;52.052;8.354;2022-12-16T06:32:26;-4.10;99.90
16955;DHT22;8594;52.052;8.354;2022-12-16T06:35:11;-4.10;99.90
16955;DHT22;8594;52.052;8.354;2022-12-16T06:37:56;-4.10;99.90
16955;DHT22;8594;52.052;8.354;2022-12-16T06:40:40;-3.90;99.90
16955;DHT22;8594;52.052;8.354;2022-12-16T06:43:25;-3.70;99.90
16955;DHT22;8594;52.052;8.354;2022-12-16T06:46:09;-3.70;99.90
16955;DHT22;8594;52.052;8.354;2022-12-16T06:48:55;-3.80;99.90
16955;DHT22;8594;52.052;8.354;2022-12-16T06:51:40;-3.70;99.90
16955;DHT22;8594;52.052;8.354;2022-12-16T06:54:24;-3.70;99.90
16955;DHT22;8594;52.052;8.354;2022-12-16T06:57:09;-4.00;99.90
16955;DHT22;8594;52.052;8.354;2022-12-16T06:59:59;-4.20;99.90
16955;DHT22;8594;52.052;8.354;2022-12-16T07:02:43;-4.20;99.90
16955;DHT22;8594;52.052;8.354;2022-12-16T07:05:29;-4.20;99.90
16955;DHT22;8594;52.052;8.354;2022-12-16T07:08:14;-4.20;99.90
16955;DHT22;8594;52.052;8.354;2022-12-16T07:10:58;-4.30;99.90
16955;DHT22;8594;52.052;8.354;2022-12-16T07:13:43;-4.20;99.90
16955;DHT22;8594;52.052;8.354;2022-12-16T07:16:28;-4.10;99.90
16955;DHT22;8594;52.052;8.354;2022-12-16T07:19:12;-3.90;99.90
16955;DHT22;8594;52.052;8.354;2022-12-16T07:21:58;-3.70;99.90
16955;DHT22;8594;52.052;8.354;2022-12-16T07:24:43;-3.80;99.90
16955;DHT22;8594;52.052;8.354;2022-12-16T07:27:27;-3.70;99.90
16955;DHT22;8594;52.052;8.354;2022-12-16T07:30:12;-3.70;99.90
16955;DHT22;8594;52.052;8.354;2022-12-16T07:32:57;-3.80;99.90
16955;DHT22;8594;52.052;8.354;2022-12-16T07:35:42;-3.70;99.90
16955;DHT22;8594;52.052;8.354;2022-12-16T07:38:28;-3.80;99.90
16955;DHT22;8594;52.052;8.354;2022-12-16T07:41:12;-3.80;99.90
16955;DHT22;8594;52.052;8.354;2022-12-16T07:43:57;-3.80;99.90
16955;DHT22;8594;52.052;8.354;2022-12-16T07:46:41;-3.70;99.90
16955;DHT22;8594;52.052;8.354;2022-12-16T07:49:26;-3.80;99.90
16955;DHT22;8594;52.052;8.354;2022-12-16T07:52:11;-4.10;99.90
16955;DHT22;8594;52.052;8.354;2022-12-16T07:54:57;-4.10;99.90
16955;DHT22;8594;52.052;8.354;2022-12-16T07:57:41;-3.60;99.90
16955;DHT22;8594;52.052;8.354;2022-12-16T08:00:32;-3.30;99.90
16955;DHT22;8594;52.052;8.354;2022-12-16T08:03:17;-3.50;99.90
16955;DHT22;8594;52.052;8.354;2022-12-16T08:06:02;-3.10;99.90
16955;DHT22;8594;52.052;8.354;2022-12-16T08:08:46;-2.90;99.90
16955;DHT22;8594;52.052;8.354;2022-12-16T08:11:32;-3.20;99.90
16955;DHT22;8594;52.052;8.354;2022-12-16T08:14:17;-3.40;99.90
16955;DHT22;8594;52.052;8.354;2022-12-16T08:17:01;-3.40;99.90
16955;DHT22;8594;52.052;8.354;2022-12-16T08:19:46;-3.30;99.90
16955;DHT22;8594;52.052;8.354;2022-12-16T08:22:30;-3.20;99.90
16955;DHT22;8594;52.052;8.354;2022-12-16T08:25:15;-3.20;99.90
16955;DHT22;8594;52.052;8.354;2022-12-16T08:28:01;-3.40;99.90
16955;DHT22;8594;52.052;8.354;2022-12-16T08:30:48;-3.30;99.90
16955;DHT22;8594;52.052;8.354;2022-12-16T08:33:33;-3.00;99.90
16955;DHT22;8594;52.052;8.354;2022-12-16T08:36:17;-3.00;99.90
16955;DHT22;8594;52.052;8.354;2022-12-16T08:39:04;-2.80;99.90
16955;DHT22;8594;52.052;8.354;2022-12-16T08:41:49;-2.50;99.90
16955;DHT22;8594;52.052;8.354;2022-12-16T08:44:34;-1.80;99.90
16955;DHT22;8594;52.052;8.354;2022-12-16T08:47:19;-1.00;99.90
16955;DHT22;8594;52.052;8.354;2022-12-16T08:50:05;-0.30;99.90
16955;DHT22;8594;52.052;8.354;2022-12-16T08:52:50;0.40;99.90
16955;DHT22;8594;52.052;8.354;2022-12-16T08:55:35;0.80;99.90
16955;DHT22;8594;52.052;8.354;2022-12-16T08:58:20;1.20;99.90
16955;DHT22;8594;52.052;8.354;2022-12-16T09:01:06;1.60;99.90
16955;DHT22;8594;52.052;8.354;2022-12-16T09:03:50;1.80;99.90
16955;DHT22;8594;52.052;8.354;2022-12-16T09:06:35;2.10;99.90
16955;DHT22;8594;52.052;8.354;2022-12-16T09:09:19;2.60;99.90
16955;DHT22;8594;52.052;8.354;2022-12-16T09:12:04;2.90;99.90
16955;DHT22;8594;52.052;8.354;2022-12-16T09:14:49;3.40;99.90
16955;DHT22;8594;52.052;8.354;2022-12-16T09:17:35;3.30;99.90
16955;DHT22;8594;52.052;8.354;2022-12-16T09:20:19;3.00;99.90
16955;DHT22;8594;52.052;8.354;2022-12-16T09:23:04;2.90;99.90
16955;DHT22;8594;52.052;8.354;2022-12-16T09:25:49;3.40;99.90
16955;DHT22;8594;52.052;8.354;2022-12-16T09:28:33;3.60;99.90
16955;DHT22;8594;52.052;8.354;2022-12-16T09:31:24;3.80;99.90
16955;DHT22;8594;52.052;8.354;2022-12-16T09:34:09;3.80;99.90
16955;DHT22;8594;52.052;8.354;2022-12-16T09:36:54;3.70;99.90
16955;DHT22;8594;52.052;8.354;2022-12-16T09:39:39;3.80;99.90
16955;DHT22;8594;52.052;8.354;2022-12-16T09:42:27;4.10;99.90
16955;DHT22;8594;52.052;8.354;2022-12-16T09:45:25;4.50;99.90
16955;DHT22;8594;52.052;8.354;2022-12-16T09:48:22;4.70;99.90
16955;DHT22;8594;52.052;8.354;2022-12-16T09:51:13;4.60;99.90
16955;DHT22;8594;52.052;8.354;2022-12-16T09:54:00;4.90;99.90
16955;DHT22;8594;52.052;8.354;2022-12-16T09:56:46;5.10;99.90
16955;DHT22;8594;52.052;8.354;2022-12-16T09:59:36;5.20;99.90
16955;DHT22;8594;52.052;8.354;2022-12-16T10:02:25;5.00;99.90
16955;DHT22;8594;52.052;8.354;2022-12-16T10:05:11;4.70;99.90
16955;DHT22;8594;52.052;8.354;2022-12-16T10:08:17;4.60;99.90
16955;DHT22;8594;52.052;8.354;2022-12-16T10:11:11;4.80;99.90
16955;DHT22;8594;52.052;8.354;2022-12-16T10:14:06;4.80;99.90
16955;DHT22;8594;52.052;8.354;2022-12-16T10:17:01;5.10;99.90
16955;DHT22;8594;52.052;8.354;2022-12-16T10:19:59;5.30;99.90
16955;DHT22;8594;52.052;8.354;2022-12-16T10:23:01;4.50;99.90
16955;DHT22;8594;52.052;8.354;2022-12-16T10:25:53;5.10;99.90
16955;DHT22;8594;52.052;8.354;2022-12-16T10:28:45;4.30;99.90
16955;DHT22;8594;52.052;8.354;2022-12-16T10:31:31;4.50;99.90
16955;DHT22;8594;52.052;8.354;2022-12-16T10:34:19;5.00;99.90
16955;DHT22;8594;52.052;8.354;2022-12-16T10:37:10;4.80;99.90
16955;DHT22;8594;52.052;8.354;2022-12-16T10:39:59;4.90;99.90
16955;DHT22;8594;52.052;8.354;2022-12-16T10:42:50;5.40;99.90
16955;DHT22;8594;52.052;8.354;2022-12-16T10:45:47;5.90;99.90
16955;DHT22;8594;52.052;8.354;2022-12-16T10:48:33;5.80;99.90
16955;DHT22;8594;52.052;8.354;2022-12-16T10:51:20;5.50;99.90
16955;DHT22;8594;52.052;8.354;2022-12-16T10:54:29;5.80;99.90
16955;DHT22;8594;52.052;8.354;2022-12-16T10:57:36;5.80;99.90
16955;DHT22;8594;52.052;8.354;2022-12-16T11:00:48;6.20;99.90
16955;DHT22;8594;52.052;8.354;2022-12-16T11:03:39;6.00;99.90
16955;DHT22;8594;52.052;8.354;2022-12-16T11:06:25;5.80;99.90
16955;DHT22;8594;52.052;8.354;2022-12-16T11:09:30;6.20;99.90
16955;DHT22;8594;52.052;8.354;2022-12-16T11:12:24;6.00;99.90
16955;DHT22;8594;52.052;8.354;2022-12-16T11:15:22;5.90;99.90
16955;DHT22;8594;52.052;8.354;2022-12-16T11:18:12;5.80;99.90
16955;DHT22;8594;52.052;8.354;2022-12-16T11:21:09;6.00;99.90
16955;DHT22;8594;52.052;8.354;2022-12-16T11:24:05;6.00;99.90
16955;DHT22;8594;52.052;8.354;2022-12-16T11:26:55;6.10;99.90
16955;DHT22;8594;52.052;8.354;2022-12-16T11:29:52;5.90;99.90
16955;DHT22;8594;52.052;8.354;2022-12-16T11:32:41;5.80;99.90
16955;DHT22;8594;52.052;8.354;2022-12-16T11:35:32;6.10;99.90
16955;DHT22;8594;52.052;8.354;2022-12-16T11:38:23;6.30;99.90
16955;DHT22;8594;52.052;8.354;2022-12-16T11:41:22;6.30;99.90
16955;DHT22;8594;52.052;8.354;2022-12-16T11:44:16;6.20;99.90
16955;DHT22;8594;52.052;8.354;2022-12-16T11:47:10;6.20;99.90
16955;DHT22;8594;52.052;8.354;2022-12-16T11:50:00;6.10;99.90
16955;DHT22;8594;52.052;8.354;2022-12-16T11:52:55;6.20;99.90
16955;DHT22;8594;52.052;8.354;2022-12-16T11:55:43;6.10;99.90
16955;DHT22;8594;52.052;8.354;2022-12-16T11:58:35;5.90;99.90
16955;DHT22;8594;52.052;8.354;2022-12-16T12:01:29;6.10;99.90
16955;DHT22;8594;52.052;8.354;2022-12-16T12:04:16;5.90;99.90
16955;DHT22;8594;52.052;8.354;2022-12-16T12:07:25;6.00;99.90
16955;DHT22;8594;52.052;8.354;2022-12-16T12:10:51;6.60;99.90
16955;DHT22;8594;52.052;8.354;2022-12-16T12:13:59;6.60;99.90
16955;DHT22;8594;52.052;8.354;2022-12-16T12:17:04;6.60;99.90
16955;DHT22;8594;52.052;8.354;2022-12-16T12:20:33;6.40;99.90
16955;DHT22;8594;52.052;8.354;2022-12-16T12:23:35;6.50;99.90
16955;DHT22;8594;52.052;8.354;2022-12-16T12:26:32;6.30;99.90
16955;DHT22;8594;52.052;8.354;2022-12-16T12:29:28;6.40;99.90
16955;DHT22;8594;52.052;8.354;2022-12-16T12:32:24;6.40;99.90
16955;DHT22;8594;52.052;8.354;2022-12-16T12:35:23;6.10;99.90
16955;DHT22;8594;52.052;8.354;2022-12-16T12:38:18;6.20;99.90
16955;DHT22;8594;52.052;8.354;2022-12-16T12:41:16;5.80;99.90
16955;DHT22;8594;52.052;8.354;2022-12-16T12:44:15;6.00;99.90
16955;DHT22;8594;52.052;8.354;2022-12-16T12:47:09;5.90;99.90
16955;DHT22;8594;52.052;8.354;2022-12-16T12:49:58;6.10;99.90
16955;DHT22;8594;52.052;8.354;2022-12-16T12:53:09;5.90;99.90
16955;DHT22;8594;52.052;8.354;2022-12-16T12:56:07;5.90;99.90
16955;DHT22;8594;52.052;8.354;2022-12-16T12:59:04;6.20;99.90
16955;DHT22;8594;52.052;8.354;2022-12-16T13:02:00;6.40;99.90
16955;DHT22;8594;52.052;8.354;2022-12-16T13:04:50;6.20;99.90
16955;DHT22;8594;52.052;8.354;2022-12-16T13:07:35;6.10;99.90
16955;DHT22;8594;52.052;8.354;2022-12-16T13:10:31;6.30;99.90
16955;DHT22;8594;52.052;8.354;2022-12-16T13:13:35;6.40;99.90
16955;DHT22;8594;52.052;8.354;2022-12-16T13:19:57;5.90;99.90
16955;DHT22;8594;52.052;8.354;2022-12-16T13:22:43;6.20;99.90
16955;DHT22;8594;52.052;8.354;2022-12-16T13:25:43;6.10;99.90
16955;DHT22;8594;52.052;8.354;2022-12-16T13:28:35;6.10;99.90
16955;DHT22;8594;52.052;8.354;2022-12-16T13:31:22;6.10;99.90
16955;DHT22;8594;52.052;8.354;2022-12-16T13:34:21;6.10;99.90
16955;DHT22;8594;52.052;8.354;2022-12-16T13:37:22;5.80;99.90
16955;DHT22;8594;52.052;8.354;2022-12-16T13:40:16;5.30;99.90
16955;DHT22;8594;52.052;8.354;2022-12-16T13:43:03;5.00;99.90
16955;DHT22;8594;52.052;8.354;2022-12-16T13:46:13;5.10;99.90
16955;DHT22;8594;52.052;8.354;2022-12-16T13:49:39;5.10;99.90
16955;DHT22;8594;52.052;8.354;2022-12-16T13:52:34;4.90;99.90
16955;DHT22;8594;52.052;8.354;2022-12-16T13:55:28;4.90;99.90
16955;DHT22;8594;52.052;8.354;2022-12-16T13:58:25;4.90;99.90
16955;DHT22;8594;52.052;8.354;2022-12-16T14:01:21;5.00;99.90
16955;DHT22;8594;52.052;8.354;2022-12-16T14:04:19;5.10;99.90
16955;DHT22;8594;52.052;8.354;2022-12-16T14:07:10;4.90;99.90
16955;DHT22;8594;52.052;8.354;2022-12-16T14:09:56;4.90;99.90
16955;DHT22;8594;52.052;8.354;2022-12-16T14:12:51;5.00;99.90
16955;DHT22;8594;52.052;8.354;2022-12-16T14:15:51;5.00;99.90
16955;DHT22;8594;52.052;8.354;2022-12-16T14:18:50;4.70;99.90
16955;DHT22;8594;52.052;8.354;2022-12-16T14:21:48;4.60;99.90
16955;DHT22;8594;52.052;8.354;2022-12-16T14:24:37;4.60;99.90
16955;DHT22;8594;52.052;8.354;2022-12-16T14:27:22;4.50;99.90
16955;DHT22;8594;52.052;8.354;2022-12-16T14:30:16;4.40;99.90
16955;DHT22;8594;52.052;8.354;2022-12-16T14:33:15;4.30;99.90
16955;DHT22;8594;52.052;8.354;2022-12-16T14:36:01;4.40;99.90
16955;DHT22;8594;52.052;8.354;2022-12-16T14:38:47;4.20;99.90
16955;DHT22;8594;52.052;8.354;2022-12-16T14:41:33;4.10;99.90
16955;DHT22;8594;52.052;8.354;2022-12-16T14:44:20;3.90;99.90
16955;DHT22;8594;52.052;8.354;2022-12-16T14:47:14;3.90;99.90
16955;DHT22;8594;52.052;8.354;2022-12-16T14:49:59;4.00;99.90
16955;DHT22;8594;52.052;8.354;2022-12-16T14:53:12;3.90;99.90
16955;DHT22;8594;52.052;8.354;2022-12-16T14:56:15;3.80;99.90
16955;DHT22;8594;52.052;8.354;2022-12-16T14:59:16;3.60;99.90
16955;DHT22;8594;52.052;8.354;2022-12-16T15:02:13;3.50;99.90
16955;DHT22;8594;52.052;8.354;2022-12-16T15:05:12;3.00;99.90
16955;DHT22;8594;52.052;8.354;2022-12-16T15:07:57;3.00;99.90
16955;DHT22;8594;52.052;8.354;2022-12-16T15:10:51;2.80;99.90
16955;DHT22;8594;52.052;8.354;2022-12-16T15:13:35;2.70;99.90
16955;DHT22;8594;52.052;8.354;2022-12-16T15:16:30;2.70;99.90
16955;DHT22;8594;52.052;8.354;2022-12-16T15:19:21;2.60;99.90
16955;DHT22;8594;52.052;8.354;2022-12-16T15:22:13;2.70;99.90
16955;DHT22;8594;52.052;8.354;2022-12-16T15:25:00;2.80;99.90
16955;DHT22;8594;52.052;8.354;2022-12-16T15:27:52;3.00;99.90
16955;DHT22;8594;52.052;8.354;2022-12-16T15:30:39;2.90;99.90
16955;DHT22;8594;52.052;8.354;2022-12-16T15:33:28;2.90;99.90
16955;DHT22;8594;52.052;8.354;2022-12-16T15:36:23;2.80;99.90
16955;DHT22;8594;52.052;8.354;2022-12-16T15:39:17;2.80;99.90
16955;DHT22;8594;52.052;8.354;2022-12-16T15:42:03;2.80;99.90
16955;DHT22;8594;52.052;8.354;2022-12-16T15:44:50;2.60;99.90
16955;DHT22;8594;52.052;8.354;2022-12-16T15:47:37;2.50;99.90
16955;DHT22;8594;52.052;8.354;2022-12-16T15:50:26;2.60;99.90
16955;DHT22;8594;52.052;8.354;2022-12-16T15:53:26;2.60;99.90
16955;DHT22;8594;52.052;8.354;2022-12-16T15:56:20;2.60;99.90
16955;DHT22;8594;52.052;8.354;2022-12-16T15:59:23;2.60;99.90
16955;DHT22;8594;52.052;8.354;2022-12-16T16:02:15;2.50;99.90
16955;DHT22;8594;52.052;8.354;2022-12-16T16:05:01;2.50;99.90
16955;DHT22;8594;52.052;8.354;2022-12-16T16:07:54;2.50;99.90
16955;DHT22;8594;52.052;8.354;2022-12-16T16:10:41;2.50;99.90
16955;DHT22;8594;52.052;8.354;2022-12-16T16:13:31;2.50;99.90
16955;DHT22;8594;52.052;8.354;2022-12-16T16:16:16;2.40;99.90
16955;DHT22;8594;52.052;8.354;2022-12-16T16:19:01;2.40;99.90
16955;DHT22;8594;52.052;8.354;2022-12-16T16:21:46;2.30;99.90
16955;DHT22;8594;52.052;8.354;2022-12-16T16:24:32;2.20;99.90
16955;DHT22;8594;52.052;8.354;2022-12-16T16:27:17;1.90;99.90
16955;DHT22;8594;52.052;8.354;2022-12-16T16:30:14;1.60;99.90
16955;DHT22;8594;52.052;8.354;2022-12-16T16:32:58;1.50;99.90
16955;DHT22;8594;52.052;8.354;2022-12-16T16:35:43;1.40;99.90
16955;DHT22;8594;52.052;8.354;2022-12-16T16:38:27;1.50;99.90
16955;DHT22;8594;52.052;8.354;2022-12-16T16:41:15;1.40;99.90
16955;DHT22;8594;52.052;8.354;2022-12-16T16:44:04;1.30;99.90
16955;DHT22;8594;52.052;8.354;2022-12-16T16:46:48;1.50;99.90
16955;DHT22;8594;52.052;8.354;2022-12-16T16:49:36;1.50;99.90
16955;DHT22;8594;52.052;8.354;2022-12-16T16:52:24;1.50;99.90
16955;DHT22;8594;52.052;8.354;2022-12-16T16:55:23;1.10;99.90
16955;DHT22;8594;52.052;8.354;2022-12-16T16:58:12;0.90;99.90
16955;DHT22;8594;52.052;8.354;2022-12-16T17:01:08;1.10;99.90
16955;DHT22;8594;52.052;8.354;2022-12-16T17:03:56;1.20;99.90
16955;DHT22;8594;52.052;8.354;2022-12-16T17:06:43;1.30;99.90
16955;DHT22;8594;52.052;8.354;2022-12-16T17:09:27;1.20;99.90
16955;DHT22;8594;52.052;8.354;2022-12-16T17:12:18;0.90;99.90
16955;DHT22;8594;52.052;8.354;2022-12-16T17:15:16;0.70;99.90
16955;DHT22;8594;52.052;8.354;2022-12-16T17:18:03;0.60;99.90
16955;DHT22;8594;52.052;8.354;2022-12-16T17:20:45;0.40;99.90
16955;DHT22;8594;52.052;8.354;2022-12-16T17:23:29;0.50;99.90
16955;DHT22;8594;52.052;8.354;2022-12-16T17:26:14;0.40;99.90
16955;DHT22;8594;52.052;8.354;2022-12-16T17:28:58;0.40;99.90
16955;DHT22;8594;52.052;8.354;2022-12-16T17:31:44;0.70;99.90
16955;DHT22;8594;52.052;8.354;2022-12-16T17:34:29;0.90;99.90
16955;DHT22;8594;52.052;8.354;2022-12-16T17:37:13;0.80;99.90
16955;DHT22;8594;52.052;8.354;2022-12-16T17:39:58;0.80;99.90
16955;DHT22;8594;52.052;8.354;2022-12-16T17:42:42;0.80;99.90
16955;DHT22;8594;52.052;8.354;2022-12-16T17:45:27;0.80;99.90
16955;DHT22;8594;52.052;8.354;2022-12-16T17:48:13;0.70;99.90
16955;DHT22;8594;52.052;8.354;2022-12-16T17:51:00;0.40;99.90
16955;DHT22;8594;52.052;8.354;2022-12-16T17:53:44;0.20;99.90
16955;DHT22;8594;52.052;8.354;2022-12-16T17:56:29;0.30;99.90